sensor_id;sensor_type;location;lat;lon;timestamp;P1;durP1;ratioP1;P2;durP2;ratioP2
3293;SDS011;1659;51.470;6.770;2022-11-14T00:01:37;15.87;;;11.60;;
3293;SDS011;1659;51.470;6.770;2022-11-14T00:04:03;18.30;;;12.50;;
3293;SDS011;1659;51.470;6.770;2022-11-14T00:06:30;20.77;;;12.67;;
3293;SDS011;1659;51.470;6.770;2022-11-14T00:08:58;15.13;;;11.90;;
3293;SDS011;1659;51.470;6.770;2022-11-14T00:11:25;15.70;;;11.30;;
3293;SDS011;1659;51.470;6.770;2022-11-14T00:13:51;16.50;;;13.07;;
3293;SDS011;1659;51.470;6.770;2022-11-14T00:16:18;18.23;;;13.10;;
3293;SDS011;1659;51.470;6.770;2022-11-14T00:18:45;19.80;;;13.53;;
3293;SDS011;1659;51.470;6.770;2022-11-14T00:21:11;22.90;;;13.03;;
3293;SDS011;1659;51.470;6.770;2022-11-14T00:23:38;17.67;;;13.93;;
3293;SDS011;1659;51.470;6.770;2022-11-14T00:26:06;19.30;;;14.57;;
3293;SDS011;1659;51.470;6.770;2022-11-14T00:28:32;17.33;;;13.70;;
3293;SDS011;1659;51.470;6.770;2022-11-14T00:30:59;18.93;;;14.10;;
3293;SDS011;1659;51.470;6.770;2022-11-14T00:33:25;19.50;;;14.23;;
3293;SDS011;1659;51.470;6.770;2022-11-14T00:35:52;26.10;;;15.47;;
3293;SDS011;1659;51.470;6.770;2022-11-14T00:38:20;20.33;;;14.87;;
3293;SDS011;1659;51.470;6.770;2022-11-14T00:40:47;21.17;;;14.80;;
3293;SDS011;1659;51.470;6.770;2022-11-14T00:43:15;21.13;;;14.90;;
3293;SDS011;1659;51.470;6.770;2022-11-14T00:45:42;24.33;;;14.70;;
3293;SDS011;1659;51.470;6.770;2022-11-14T00:48:09;21.27;;;14.33;;
3293;SDS011;1659;51.470;6.770;2022-11-14T00:50:36;25.33;;;15.67;;
3293;SDS011;1659;51.470;6.770;2022-11-14T00:53:03;25.13;;;15.70;;
3293;SDS011;1659;51.470;6.770;2022-11-14T00:55:29;22.40;;;15.40;;
3293;SDS011;1659;51.470;6.770;2022-11-14T00:57:56;20.50;;;14.77;;
3293;SDS011;1659;51.470;6.770;2022-11-14T01:00:24;23.17;;;16.73;;
3293;SDS011;1659;51.470;6.770;2022-11-14T01:02:50;21.40;;;15.03;;
3293;SDS011;1659;51.470;6.770;2022-11-14T01:05:20;20.20;;;14.47;;
3293;SDS011;1659;51.470;6.770;2022-11-14T01:07:47;24.67;;;14.67;;
3293;SDS011;1659;51.470;6.770;2022-11-14T01:10:14;20.47;;;15.13;;
3293;SDS011;1659;51.470;6.770;2022-11-14T01:12:41;23.47;;;15.33;;
3293;SDS011;1659;51.470;6.770;2022-11-14T01:15:08;23.70;;;15.63;;
3293;SDS011;1659;51.470;6.770;2022-11-14T01:17:36;21.27;;;16.47;;
3293;SDS011;1659;51.470;6.770;2022-11-14T01:20:03;23.90;;;15.27;;
3293;SDS011;1659;51.470;6.770;2022-11-14T01:22:30;25.70;;;16.50;;
3293;SDS011;1659;51.470;6.770;2022-11-14T01:24:57;22.43;;;15.33;;
3293;SDS011;1659;51.470;6.770;2022-11-14T01:27:24;25.27;;;16.67;;
3293;SDS011;1659;51.470;6.770;2022-11-14T01:29:51;26.00;;;17.50;;
3293;SDS011;1659;51.470;6.770;2022-11-14T01:32:17;21.63;;;15.70;;
3293;SDS011;1659;51.470;6.770;2022-11-14T01:34:46;25.50;;;17.23;;
3293;SDS011;1659;51.470;6.770;2022-11-14T01:37:12;21.67;;;15.80;;
3293;SDS011;1659;51.470;6.770;2022-11-14T01:39:39;24.30;;;17.10;;
3293;SDS011;1659;51.470;6.770;2022-11-14T01:42:05;22.50;;;15.50;;
3293;SDS011;1659;51.470;6.770;2022-11-14T01:44:45;21.97;;;16.03;;
3293;SDS011;1659;51.470;6.770;2022-11-14T01:47:15;27.23;;;16.10;;
3293;SDS011;1659;51.470;6.770;2022-11-14T01:49:47;23.40;;;15.23;;
3293;SDS011;1659;51.470;6.770;2022-11-14T01:52:18;22.30;;;16.07;;
3293;SDS011;1659;51.470;6.770;2022-11-14T01:54:48;28.77;;;16.30;;
3293;SDS011;1659;51.470;6.770;2022-11-14T01:57:17;24.47;;;16.70;;
3293;SDS011;1659;51.470;6.770;2022-11-14T01:59:48;25.50;;;17.10;;
3293;SDS011;1659;51.470;6.770;2022-11-14T02:02:18;27.83;;;17.30;;
3293;SDS011;1659;51.470;6.770;2022-11-14T02:04:48;25.63;;;17.13;;
3293;SDS011;1659;51.470;6.770;2022-11-14T02:07:20;27.00;;;18.23;;
3293;SDS011;1659;51.470;6.770;2022-11-14T02:09:49;26.50;;;17.63;;
3293;SDS011;1659;51.470;6.770;2022-11-14T02:12:17;27.40;;;17.83;;
3293;SDS011;1659;51.470;6.770;2022-11-14T02:14:45;29.53;;;17.73;;
3293;SDS011;1659;51.470;6.770;2022-11-14T02:17:13;27.93;;;17.17;;
3293;SDS011;1659;51.470;6.770;2022-11-14T02:19:42;21.77;;;16.57;;
3293;SDS011;1659;51.470;6.770;2022-11-14T02:22:11;26.80;;;16.80;;
3293;SDS011;1659;51.470;6.770;2022-11-14T02:24:38;25.87;;;17.20;;
3293;SDS011;1659;51.470;6.770;2022-11-14T02:27:05;27.17;;;17.30;;
3293;SDS011;1659;51.470;6.770;2022-11-14T02:29:33;27.43;;;18.70;;
3293;SDS011;1659;51.470;6.770;2022-11-14T02:32:00;33.40;;;18.57;;
3293;SDS011;1659;51.470;6.770;2022-11-14T02:34:27;29.20;;;18.50;;
3293;SDS011;1659;51.470;6.770;2022-11-14T02:36:54;26.67;;;18.70;;
3293;SDS011;1659;51.470;6.770;2022-11-14T02:39:22;28.50;;;18.37;;
3293;SDS011;1659;51.470;6.770;2022-11-14T02:41:49;30.00;;;20.50;;
3293;SDS011;1659;51.470;6.770;2022-11-14T02:44:16;27.67;;;18.40;;
3293;SDS011;1659;51.470;6.770;2022-11-14T02:46:43;32.70;;;20.07;;
3293;SDS011;1659;51.470;6.770;2022-11-14T02:49:10;32.67;;;19.03;;
3293;SDS011;1659;51.470;6.770;2022-11-14T02:51:37;29.73;;;20.50;;
3293;SDS011;1659;51.470;6.770;2022-11-14T02:54:05;34.67;;;20.77;;
3293;SDS011;1659;51.470;6.770;2022-11-14T02:56:33;31.30;;;20.83;;
3293;SDS011;1659;51.470;6.770;2022-11-14T02:58:59;30.53;;;21.60;;
3293;SDS011;1659;51.470;6.770;2022-11-14T03:01:26;30.80;;;20.50;;
3293;SDS011;1659;51.470;6.770;2022-11-14T03:03:52;33.57;;;21.67;;
3293;SDS011;1659;51.470;6.770;2022-11-14T03:06:19;41.00;;;23.30;;
3293;SDS011;1659;51.470;6.770;2022-11-14T03:08:45;33.30;;;21.30;;
3293;SDS011;1659;51.470;6.770;2022-11-14T03:11:12;36.03;;;22.90;;
3293;SDS011;1659;51.470;6.770;2022-11-14T03:13:40;35.57;;;20.80;;
3293;SDS011;1659;51.470;6.770;2022-11-14T03:16:07;32.17;;;21.27;;
3293;SDS011;1659;51.470;6.770;2022-11-14T03:18:36;30.93;;;21.50;;
3293;SDS011;1659;51.470;6.770;2022-11-14T03:21:06;33.30;;;23.00;;
3293;SDS011;1659;51.470;6.770;2022-11-14T03:23:33;40.67;;;21.53;;
3293;SDS011;1659;51.470;6.770;2022-11-14T03:25:59;30.17;;;21.43;;
3293;SDS011;1659;51.470;6.770;2022-11-14T03:28:27;37.30;;;22.80;;
3293;SDS011;1659;51.470;6.770;2022-11-14T03:30:55;32.37;;;22.53;;
3293;SDS011;1659;51.470;6.770;2022-11-14T03:33:22;40.70;;;23.20;;
3293;SDS011;1659;51.470;6.770;2022-11-14T03:35:49;38.67;;;23.57;;
3293;SDS011;1659;51.470;6.770;2022-11-14T03:38:16;41.27;;;23.23;;
3293;SDS011;1659;51.470;6.770;2022-11-14T03:40:47;39.87;;;23.73;;
3293;SDS011;1659;51.470;6.770;2022-11-14T03:43:14;38.27;;;23.93;;
3293;SDS011;1659;51.470;6.770;2022-11-14T03:45:40;41.70;;;24.50;;
3293;SDS011;1659;51.470;6.770;2022-11-14T03:48:08;38.47;;;24.20;;
3293;SDS011;1659;51.470;6.770;2022-11-14T03:50:35;40.63;;;24.63;;
3293;SDS011;1659;51.470;6.770;2022-11-14T03:53:02;34.40;;;22.97;;
3293;SDS011;1659;51.470;6.770;2022-11-14T03:55:28;34.57;;;23.17;;
3293;SDS011;1659;51.470;6.770;2022-11-14T03:57:55;42.50;;;24.13;;
3293;SDS011;1659;51.470;6.770;2022-11-14T04:00:21;37.17;;;22.80;;
3293;SDS011;1659;51.470;6.770;2022-11-14T04:02:48;39.13;;;24.37;;
3293;SDS011;1659;51.470;6.770;2022-11-14T04:05:16;31.33;;;21.37;;
3293;SDS011;1659;51.470;6.770;2022-11-14T04:07:42;41.50;;;22.90;;
3293;SDS011;1659;51.470;6.770;2022-11-14T04:10:09;36.47;;;22.47;;
3293;SDS011;1659;51.470;6.770;2022-11-14T04:12:35;38.93;;;22.70;;
3293;SDS011;1659;51.470;6.770;2022-11-14T04:15:02;36.27;;;22.27;;
3293;SDS011;1659;51.470;6.770;2022-11-14T04:17:29;35.80;;;23.03;;
3293;SDS011;1659;51.470;6.770;2022-11-14T04:19:56;31.70;;;22.13;;
3293;SDS011;1659;51.470;6.770;2022-11-14T04:22:24;38.20;;;21.57;;
3293;SDS011;1659;51.470;6.770;2022-11-14T04:24:50;38.97;;;21.47;;
3293;SDS011;1659;51.470;6.770;2022-11-14T04:27:17;40.10;;;23.23;;
3293;SDS011;1659;51.470;6.770;2022-11-14T04:29:43;34.20;;;22.00;;
3293;SDS011;1659;51.470;6.770;2022-11-14T04:32:10;39.43;;;24.10;;
3293;SDS011;1659;51.470;6.770;2022-11-14T04:34:36;37.90;;;22.90;;
3293;SDS011;1659;51.470;6.770;2022-11-14T04:37:03;36.97;;;21.83;;
3293;SDS011;1659;51.470;6.770;2022-11-14T04:39:31;36.83;;;22.27;;
3293;SDS011;1659;51.470;6.770;2022-11-14T04:41:57;42.20;;;24.27;;
3293;SDS011;1659;51.470;6.770;2022-11-14T04:44:24;38.20;;;23.00;;
3293;SDS011;1659;51.470;6.770;2022-11-14T04:46:50;42.77;;;23.80;;
3293;SDS011;1659;51.470;6.770;2022-11-14T04:49:17;43.60;;;23.73;;
3293;SDS011;1659;51.470;6.770;2022-11-14T04:51:43;41.00;;;22.90;;
3293;SDS011;1659;51.470;6.770;2022-11-14T04:54:10;40.80;;;22.17;;
3293;SDS011;1659;51.470;6.770;2022-11-14T04:56:38;46.17;;;25.37;;
3293;SDS011;1659;51.470;6.770;2022-11-14T04:59:04;40.63;;;22.57;;
3293;SDS011;1659;51.470;6.770;2022-11-14T05:01:31;41.80;;;22.17;;
3293;SDS011;1659;51.470;6.770;2022-11-14T05:03:58;45.63;;;24.20;;
3293;SDS011;1659;51.470;6.770;2022-11-14T05:06:25;49.57;;;24.37;;
3293;SDS011;1659;51.470;6.770;2022-11-14T05:08:52;41.83;;;24.00;;
3293;SDS011;1659;51.470;6.770;2022-11-14T05:11:19;41.40;;;23.33;;
3293;SDS011;1659;51.470;6.770;2022-11-14T05:13:47;38.80;;;22.77;;
3293;SDS011;1659;51.470;6.770;2022-11-14T05:16:14;40.03;;;23.20;;
3293;SDS011;1659;51.470;6.770;2022-11-14T05:18:40;43.17;;;25.47;;
3293;SDS011;1659;51.470;6.770;2022-11-14T05:21:09;35.57;;;20.93;;
3293;SDS011;1659;51.470;6.770;2022-11-14T05:23:37;41.93;;;24.60;;
3293;SDS011;1659;51.470;6.770;2022-11-14T05:26:05;45.90;;;24.40;;
3293;SDS011;1659;51.470;6.770;2022-11-14T05:28:33;41.47;;;23.33;;
3293;SDS011;1659;51.470;6.770;2022-11-14T05:31:02;36.37;;;21.97;;
3293;SDS011;1659;51.470;6.770;2022-11-14T05:33:29;40.13;;;22.73;;
3293;SDS011;1659;51.470;6.770;2022-11-14T05:36:00;38.80;;;23.07;;
3293;SDS011;1659;51.470;6.770;2022-11-14T05:38:27;41.00;;;23.10;;
3293;SDS011;1659;51.470;6.770;2022-11-14T05:40:54;38.60;;;24.13;;
3293;SDS011;1659;51.470;6.770;2022-11-14T05:43:23;43.67;;;24.77;;
3293;SDS011;1659;51.470;6.770;2022-11-14T05:45:49;46.30;;;22.97;;
3293;SDS011;1659;51.470;6.770;2022-11-14T05:48:17;46.80;;;23.97;;
3293;SDS011;1659;51.470;6.770;2022-11-14T05:50:44;42.07;;;23.27;;
3293;SDS011;1659;51.470;6.770;2022-11-14T05:53:10;48.70;;;24.80;;
3293;SDS011;1659;51.470;6.770;2022-11-14T05:55:37;45.40;;;26.17;;
3293;SDS011;1659;51.470;6.770;2022-11-14T05:58:03;48.80;;;23.40;;
3293;SDS011;1659;51.470;6.770;2022-11-14T06:00:30;34.17;;;22.63;;
3293;SDS011;1659;51.470;6.770;2022-11-14T06:02:56;45.33;;;23.70;;
3293;SDS011;1659;51.470;6.770;2022-11-14T06:05:24;45.50;;;26.00;;
3293;SDS011;1659;51.470;6.770;2022-11-14T06:07:53;42.23;;;23.53;;
3293;SDS011;1659;51.470;6.770;2022-11-14T06:10:21;39.50;;;23.67;;
3293;SDS011;1659;51.470;6.770;2022-11-14T06:12:47;39.07;;;24.70;;
3293;SDS011;1659;51.470;6.770;2022-11-14T06:15:14;45.03;;;23.80;;
3293;SDS011;1659;51.470;6.770;2022-11-14T06:17:41;46.73;;;24.83;;
3293;SDS011;1659;51.470;6.770;2022-11-14T06:20:07;43.10;;;23.63;;
3293;SDS011;1659;51.470;6.770;2022-11-14T06:22:36;50.03;;;26.40;;
3293;SDS011;1659;51.470;6.770;2022-11-14T06:25:02;46.70;;;26.27;;
3293;SDS011;1659;51.470;6.770;2022-11-14T06:27:29;49.90;;;26.40;;
3293;SDS011;1659;51.470;6.770;2022-11-14T06:29:56;44.13;;;24.80;;
3293;SDS011;1659;51.470;6.770;2022-11-14T06:32:23;51.00;;;24.80;;
3293;SDS011;1659;51.470;6.770;2022-11-14T06:34:49;42.60;;;25.33;;
3293;SDS011;1659;51.470;6.770;2022-11-14T06:37:16;41.20;;;24.10;;
3293;SDS011;1659;51.470;6.770;2022-11-14T06:39:44;43.90;;;25.90;;
3293;SDS011;1659;51.470;6.770;2022-11-14T06:42:10;50.33;;;25.17;;
3293;SDS011;1659;51.470;6.770;2022-11-14T06:44:37;46.57;;;24.50;;
3293;SDS011;1659;51.470;6.770;2022-11-14T06:47:03;44.57;;;25.40;;
3293;SDS011;1659;51.470;6.770;2022-11-14T06:49:30;41.27;;;24.17;;
3293;SDS011;1659;51.470;6.770;2022-11-14T06:51:56;41.07;;;22.63;;
3293;SDS011;1659;51.470;6.770;2022-11-14T06:54:23;46.63;;;25.00;;
3293;SDS011;1659;51.470;6.770;2022-11-14T06:56:51;54.60;;;24.20;;
3293;SDS011;1659;51.470;6.770;2022-11-14T06:59:17;48.73;;;23.10;;
3293;SDS011;1659;51.470;6.770;2022-11-14T07:01:44;33.70;;;21.60;;
3293;SDS011;1659;51.470;6.770;2022-11-14T07:04:10;53.70;;;24.27;;
3293;SDS011;1659;51.470;6.770;2022-11-14T07:06:37;45.47;;;24.03;;
3293;SDS011;1659;51.470;6.770;2022-11-14T07:09:03;37.47;;;21.30;;
3293;SDS011;1659;51.470;6.770;2022-11-14T07:11:30;45.80;;;23.33;;
3293;SDS011;1659;51.470;6.770;2022-11-14T07:13:58;45.40;;;22.97;;
3293;SDS011;1659;51.470;6.770;2022-11-14T07:16:26;40.90;;;23.70;;
3293;SDS011;1659;51.470;6.770;2022-11-14T07:18:54;47.83;;;22.53;;
3293;SDS011;1659;51.470;6.770;2022-11-14T07:21:21;45.30;;;24.07;;
3293;SDS011;1659;51.470;6.770;2022-11-14T07:23:48;36.60;;;22.03;;
3293;SDS011;1659;51.470;6.770;2022-11-14T07:26:15;43.30;;;21.80;;
3293;SDS011;1659;51.470;6.770;2022-11-14T07:28:42;40.27;;;23.33;;
3293;SDS011;1659;51.470;6.770;2022-11-14T07:31:12;43.70;;;23.00;;
3293;SDS011;1659;51.470;6.770;2022-11-14T07:33:40;42.43;;;23.70;;
3293;SDS011;1659;51.470;6.770;2022-11-14T07:36:08;41.07;;;23.30;;
3293;SDS011;1659;51.470;6.770;2022-11-14T07:38:36;50.20;;;25.43;;
3293;SDS011;1659;51.470;6.770;2022-11-14T07:41:03;47.40;;;24.93;;
3293;SDS011;1659;51.470;6.770;2022-11-14T07:43:33;39.67;;;24.80;;
3293;SDS011;1659;51.470;6.770;2022-11-14T07:45:59;52.57;;;27.70;;
3293;SDS011;1659;51.470;6.770;2022-11-14T07:48:28;48.73;;;24.83;;
3293;SDS011;1659;51.470;6.770;2022-11-14T07:50:57;53.10;;;25.30;;
3293;SDS011;1659;51.470;6.770;2022-11-14T07:53:24;45.30;;;26.20;;
3293;SDS011;1659;51.470;6.770;2022-11-14T07:55:50;53.93;;;26.67;;
3293;SDS011;1659;51.470;6.770;2022-11-14T07:58:17;56.37;;;30.40;;
3293;SDS011;1659;51.470;6.770;2022-11-14T08:00:44;49.90;;;28.23;;
3293;SDS011;1659;51.470;6.770;2022-11-14T08:03:10;47.93;;;26.60;;
3293;SDS011;1659;51.470;6.770;2022-11-14T08:05:38;43.20;;;22.53;;
3293;SDS011;1659;51.470;6.770;2022-11-14T08:08:05;51.40;;;23.97;;
3293;SDS011;1659;51.470;6.770;2022-11-14T08:10:31;39.90;;;21.20;;
3293;SDS011;1659;51.470;6.770;2022-11-14T08:12:58;36.93;;;19.83;;
3293;SDS011;1659;51.470;6.770;2022-11-14T08:15:26;36.30;;;20.43;;
3293;SDS011;1659;51.470;6.770;2022-11-14T08:17:55;35.60;;;17.80;;
3293;SDS011;1659;51.470;6.770;2022-11-14T08:20:22;25.80;;;15.57;;
3293;SDS011;1659;51.470;6.770;2022-11-14T08:22:51;22.87;;;14.40;;
3293;SDS011;1659;51.470;6.770;2022-11-14T08:25:17;33.83;;;14.10;;
3293;SDS011;1659;51.470;6.770;2022-11-14T08:27:44;21.00;;;14.23;;
3293;SDS011;1659;51.470;6.770;2022-11-14T08:30:11;30.23;;;14.90;;
3293;SDS011;1659;51.470;6.770;2022-11-14T08:32:38;21.63;;;13.77;;
3293;SDS011;1659;51.470;6.770;2022-11-14T08:35:05;22.03;;;14.37;;
3293;SDS011;1659;51.470;6.770;2022-11-14T08:37:32;20.90;;;13.40;;
3293;SDS011;1659;51.470;6.770;2022-11-14T08:39:59;19.43;;;13.27;;
3293;SDS011;1659;51.470;6.770;2022-11-14T08:42:26;24.87;;;14.03;;
3293;SDS011;1659;51.470;6.770;2022-11-14T08:44:53;21.70;;;13.47;;
3293;SDS011;1659;51.470;6.770;2022-11-14T08:47:19;24.87;;;13.93;;
3293;SDS011;1659;51.470;6.770;2022-11-14T08:49:46;24.37;;;14.57;;
3293;SDS011;1659;51.470;6.770;2022-11-14T08:52:13;24.97;;;15.30;;
3293;SDS011;1659;51.470;6.770;2022-11-14T08:54:39;24.10;;;15.43;;
3293;SDS011;1659;51.470;6.770;2022-11-14T08:57:08;27.07;;;16.37;;
3293;SDS011;1659;51.470;6.770;2022-11-14T08:59:35;28.73;;;17.13;;
3293;SDS011;1659;51.470;6.770;2022-11-14T09:02:02;30.93;;;17.13;;
3293;SDS011;1659;51.470;6.770;2022-11-14T09:04:29;33.23;;;16.70;;
3293;SDS011;1659;51.470;6.770;2022-11-14T09:06:55;33.43;;;15.80;;
3293;SDS011;1659;51.470;6.770;2022-11-14T09:09:22;29.90;;;16.10;;
3293;SDS011;1659;51.470;6.770;2022-11-14T09:11:49;25.13;;;15.13;;
3293;SDS011;1659;51.470;6.770;2022-11-14T09:14:17;31.87;;;16.87;;
3293;SDS011;1659;51.470;6.770;2022-11-14T09:16:45;29.37;;;16.30;;
3293;SDS011;1659;51.470;6.770;2022-11-14T09:19:12;35.97;;;17.33;;
3293;SDS011;1659;51.470;6.770;2022-11-14T09:21:39;32.70;;;18.10;;
3293;SDS011;1659;51.470;6.770;2022-11-14T09:24:05;35.73;;;16.80;;
3293;SDS011;1659;51.470;6.770;2022-11-14T09:26:32;27.00;;;16.43;;
3293;SDS011;1659;51.470;6.770;2022-11-14T09:28:59;29.10;;;16.93;;
3293;SDS011;1659;51.470;6.770;2022-11-14T09:31:27;35.03;;;17.03;;
3293;SDS011;1659;51.470;6.770;2022-11-14T09:33:54;29.70;;;16.73;;
3293;SDS011;1659;51.470;6.770;2022-11-14T09:36:21;30.10;;;17.50;;
3293;SDS011;1659;51.470;6.770;2022-11-14T09:38:49;32.87;;;16.67;;
3293;SDS011;1659;51.470;6.770;2022-11-14T09:41:21;33.07;;;18.40;;
3293;SDS011;1659;51.470;6.770;2022-11-14T09:44:03;31.90;;;17.90;;
3293;SDS011;1659;51.470;6.770;2022-11-14T09:46:42;30.97;;;18.73;;
3293;SDS011;1659;51.470;6.770;2022-11-14T09:49:17;35.53;;;20.47;;
3293;SDS011;1659;51.470;6.770;2022-11-14T09:51:51;33.10;;;17.17;;
3293;SDS011;1659;51.470;6.770;2022-11-14T09:54:24;35.73;;;18.30;;
3293;SDS011;1659;51.470;6.770;2022-11-14T09:56:52;32.70;;;19.30;;
3293;SDS011;1659;51.470;6.770;2022-11-14T09:59:19;38.17;;;18.00;;
3293;SDS011;1659;51.470;6.770;2022-11-14T10:01:48;40.47;;;18.43;;
3293;SDS011;1659;51.470;6.770;2022-11-14T10:04:23;29.17;;;16.77;;
3293;SDS011;1659;51.470;6.770;2022-11-14T10:07:03;36.63;;;18.80;;
3293;SDS011;1659;51.470;6.770;2022-11-14T10:09:48;34.40;;;19.63;;
3293;SDS011;1659;51.470;6.770;2022-11-14T10:12:21;52.07;;;20.50;;
3293;SDS011;1659;51.470;6.770;2022-11-14T10:14:55;35.13;;;19.20;;
3293;SDS011;1659;51.470;6.770;2022-11-14T10:17:39;34.30;;;19.77;;
3293;SDS011;1659;51.470;6.770;2022-11-14T10:20:18;41.87;;;19.10;;
3293;SDS011;1659;51.470;6.770;2022-11-14T10:22:53;40.00;;;20.73;;
3293;SDS011;1659;51.470;6.770;2022-11-14T10:25:33;34.60;;;18.80;;
3293;SDS011;1659;51.470;6.770;2022-11-14T10:28:14;31.80;;;18.30;;
3293;SDS011;1659;51.470;6.770;2022-11-14T10:31:01;31.93;;;17.83;;
3293;SDS011;1659;51.470;6.770;2022-11-14T10:33:38;28.67;;;16.93;;
3293;SDS011;1659;51.470;6.770;2022-11-14T10:36:15;38.27;;;17.60;;
3293;SDS011;1659;51.470;6.770;2022-11-14T10:38:49;40.73;;;13.93;;
3293;SDS011;1659;51.470;6.770;2022-11-14T10:41:19;32.37;;;16.50;;
3293;SDS011;1659;51.470;6.770;2022-11-14T10:43:50;32.93;;;15.87;;
3293;SDS011;1659;51.470;6.770;2022-11-14T10:46:18;30.03;;;16.23;;
3293;SDS011;1659;51.470;6.770;2022-11-14T10:48:50;33.23;;;17.50;;
3293;SDS011;1659;51.470;6.770;2022-11-14T10:51:18;29.00;;;14.80;;
3293;SDS011;1659;51.470;6.770;2022-11-14T10:53:51;29.47;;;15.30;;
3293;SDS011;1659;51.470;6.770;2022-11-14T10:56:20;30.20;;;16.70;;
3293;SDS011;1659;51.470;6.770;2022-11-14T10:58:47;28.70;;;15.67;;
3293;SDS011;1659;51.470;6.770;2022-11-14T11:04:14;35.03;;;15.57;;
3293;SDS011;1659;51.470;6.770;2022-11-14T11:06:45;24.20;;;13.27;;
3293;SDS011;1659;51.470;6.770;2022-11-14T11:09:13;20.70;;;11.80;;
3293;SDS011;1659;51.470;6.770;2022-11-14T11:11:59;23.07;;;14.70;;
3293;SDS011;1659;51.470;6.770;2022-11-14T11:14:27;19.30;;;12.77;;
3293;SDS011;1659;51.470;6.770;2022-11-14T11:17:07;23.90;;;13.47;;
3293;SDS011;1659;51.470;6.770;2022-11-14T11:19:42;21.10;;;11.73;;
3293;SDS011;1659;51.470;6.770;2022-11-14T11:22:22;20.63;;;11.63;;
3293;SDS011;1659;51.470;6.770;2022-11-14T11:24:50;21.50;;;11.97;;
3293;SDS011;1659;51.470;6.770;2022-11-14T11:27:20;16.87;;;10.17;;
3293;SDS011;1659;51.470;6.770;2022-11-14T11:32:34;15.30;;;9.30;;
3293;SDS011;1659;51.470;6.770;2022-11-14T11:35:04;15.23;;;10.10;;
3293;SDS011;1659;51.470;6.770;2022-11-14T11:37:38;17.80;;;11.37;;
3293;SDS011;1659;51.470;6.770;2022-11-14T11:40:09;15.83;;;10.57;;
3293;SDS011;1659;51.470;6.770;2022-11-14T11:42:41;17.77;;;10.70;;
3293;SDS011;1659;51.470;6.770;2022-11-14T11:45:15;27.03;;;11.30;;
3293;SDS011;1659;51.470;6.770;2022-11-14T11:47:45;20.53;;;12.67;;
3293;SDS011;1659;51.470;6.770;2022-11-14T11:50:20;17.20;;;10.90;;
3293;SDS011;1659;51.470;6.770;2022-11-14T11:52:50;20.80;;;11.77;;
3293;SDS011;1659;51.470;6.770;2022-11-14T11:55:28;18.20;;;10.70;;
3293;SDS011;1659;51.470;6.770;2022-11-14T11:58:00;19.37;;;11.97;;
3293;SDS011;1659;51.470;6.770;2022-11-14T12:00:30;17.23;;;10.67;;
3293;SDS011;1659;51.470;6.770;2022-11-14T12:02:57;16.40;;;10.90;;
3293;SDS011;1659;51.470;6.770;2022-11-14T12:05:27;20.80;;;12.80;;
3293;SDS011;1659;51.470;6.770;2022-11-14T12:08:03;19.53;;;12.33;;
3293;SDS011;1659;51.470;6.770;2022-11-14T12:10:35;16.67;;;11.97;;
3293;SDS011;1659;51.470;6.770;2022-11-14T12:18:53;22.50;;;12.43;;
3293;SDS011;1659;51.470;6.770;2022-11-14T12:21:36;22.40;;;12.80;;
3293;SDS011;1659;51.470;6.770;2022-11-14T12:24:31;18.17;;;12.43;;
3293;SDS011;1659;51.470;6.770;2022-11-14T12:27:19;20.70;;;13.07;;
3293;SDS011;1659;51.470;6.770;2022-11-14T12:30:03;24.33;;;12.57;;
3293;SDS011;1659;51.470;6.770;2022-11-14T12:32:37;20.13;;;12.90;;
3293;SDS011;1659;51.470;6.770;2022-11-14T12:35:06;21.67;;;12.70;;
3293;SDS011;1659;51.470;6.770;2022-11-14T12:37:43;17.33;;;11.90;;
3293;SDS011;1659;51.470;6.770;2022-11-14T12:40:17;25.23;;;13.07;;
3293;SDS011;1659;51.470;6.770;2022-11-14T12:42:49;21.03;;;12.50;;
3293;SDS011;1659;51.470;6.770;2022-11-14T12:48:28;21.43;;;13.33;;
3293;SDS011;1659;51.470;6.770;2022-11-14T12:50:57;21.73;;;12.90;;
3293;SDS011;1659;51.470;6.770;2022-11-14T12:53:42;24.03;;;13.70;;
3293;SDS011;1659;51.470;6.770;2022-11-14T12:59:27;18.90;;;11.53;;
3293;SDS011;1659;51.470;6.770;2022-11-14T13:02:08;20.47;;;12.90;;
3293;SDS011;1659;51.470;6.770;2022-11-14T13:04:52;25.43;;;12.27;;
3293;SDS011;1659;51.470;6.770;2022-11-14T13:07:36;20.00;;;12.77;;
3293;SDS011;1659;51.470;6.770;2022-11-14T13:10:14;24.93;;;12.47;;
3293;SDS011;1659;51.470;6.770;2022-11-14T13:12:55;20.00;;;11.40;;
3293;SDS011;1659;51.470;6.770;2022-11-14T13:15:46;21.33;;;11.90;;
3293;SDS011;1659;51.470;6.770;2022-11-14T13:18:32;20.00;;;12.20;;
3293;SDS011;1659;51.470;6.770;2022-11-14T13:21:19;21.67;;;12.40;;
3293;SDS011;1659;51.470;6.770;2022-11-14T13:24:05;23.33;;;12.10;;
3293;SDS011;1659;51.470;6.770;2022-11-14T13:26:47;22.33;;;13.53;;
3293;SDS011;1659;51.470;6.770;2022-11-14T13:44:42;20.00;;;10.73;;
3293;SDS011;1659;51.470;6.770;2022-11-14T13:47:35;25.40;;;13.20;;
3293;SDS011;1659;51.470;6.770;2022-11-14T13:50:23;21.87;;;12.40;;
3293;SDS011;1659;51.470;6.770;2022-11-14T13:52:54;20.33;;;12.67;;
3293;SDS011;1659;51.470;6.770;2022-11-14T13:55:22;22.47;;;12.73;;
3293;SDS011;1659;51.470;6.770;2022-11-14T13:57:56;18.93;;;11.93;;
3293;SDS011;1659;51.470;6.770;2022-11-14T14:00:43;22.77;;;12.70;;
3293;SDS011;1659;51.470;6.770;2022-11-14T14:03:23;24.13;;;14.00;;
3293;SDS011;1659;51.470;6.770;2022-11-14T14:06:12;24.80;;;13.50;;
3293;SDS011;1659;51.470;6.770;2022-11-14T14:08:55;22.80;;;14.53;;
3293;SDS011;1659;51.470;6.770;2022-11-14T14:11:35;27.13;;;15.10;;
3293;SDS011;1659;51.470;6.770;2022-11-14T14:14:15;27.77;;;14.10;;
3293;SDS011;1659;51.470;6.770;2022-11-14T14:16:59;24.90;;;14.50;;
3293;SDS011;1659;51.470;6.770;2022-11-14T14:19:34;22.00;;;14.90;;
3293;SDS011;1659;51.470;6.770;2022-11-14T14:22:10;29.20;;;13.70;;
3293;SDS011;1659;51.470;6.770;2022-11-14T14:24:47;23.43;;;13.57;;
3293;SDS011;1659;51.470;6.770;2022-11-14T14:27:21;23.13;;;14.00;;
3293;SDS011;1659;51.470;6.770;2022-11-14T14:29:54;29.53;;;16.33;;
3293;SDS011;1659;51.470;6.770;2022-11-14T14:32:29;26.50;;;14.77;;
3293;SDS011;1659;51.470;6.770;2022-11-14T14:34:55;40.53;;;19.83;;
3293;SDS011;1659;51.470;6.770;2022-11-14T14:37:25;28.63;;;15.03;;
3293;SDS011;1659;51.470;6.770;2022-11-14T14:39:56;28.80;;;14.80;;
3293;SDS011;1659;51.470;6.770;2022-11-14T14:42:24;26.57;;;16.40;;
3293;SDS011;1659;51.470;6.770;2022-11-14T14:44:51;29.87;;;15.17;;
3293;SDS011;1659;51.470;6.770;2022-11-14T14:47:26;26.40;;;16.50;;
3293;SDS011;1659;51.470;6.770;2022-11-14T14:50:04;27.83;;;16.10;;
3293;SDS011;1659;51.470;6.770;2022-11-14T14:52:39;26.80;;;15.17;;
3293;SDS011;1659;51.470;6.770;2022-11-14T14:55:06;38.23;;;15.90;;
3293;SDS011;1659;51.470;6.770;2022-11-14T14:57:43;27.80;;;14.97;;
3293;SDS011;1659;51.470;6.770;2022-11-14T15:00:15;30.90;;;16.60;;
3293;SDS011;1659;51.470;6.770;2022-11-14T15:02:46;26.97;;;15.80;;
3293;SDS011;1659;51.470;6.770;2022-11-14T15:05:20;28.03;;;15.80;;
3293;SDS011;1659;51.470;6.770;2022-11-14T15:07:47;27.47;;;15.10;;
3293;SDS011;1659;51.470;6.770;2022-11-14T15:10:18;30.67;;;15.90;;
3293;SDS011;1659;51.470;6.770;2022-11-14T15:12:48;26.83;;;15.53;;
3293;SDS011;1659;51.470;6.770;2022-11-14T15:15:15;23.27;;;14.20;;
3293;SDS011;1659;51.470;6.770;2022-11-14T15:17:45;33.83;;;15.00;;
3293;SDS011;1659;51.470;6.770;2022-11-14T15:20:22;30.23;;;15.97;;
3293;SDS011;1659;51.470;6.770;2022-11-14T15:23:15;29.17;;;16.50;;
3293;SDS011;1659;51.470;6.770;2022-11-14T15:25:44;29.10;;;15.57;;
3293;SDS011;1659;51.470;6.770;2022-11-14T15:28:12;27.03;;;15.63;;
3293;SDS011;1659;51.470;6.770;2022-11-14T15:30:41;29.70;;;14.40;;
3293;SDS011;1659;51.470;6.770;2022-11-14T15:36:07;25.70;;;14.63;;
3293;SDS011;1659;51.470;6.770;2022-11-14T15:38:35;34.77;;;16.67;;
3293;SDS011;1659;51.470;6.770;2022-11-14T15:43:52;27.57;;;15.63;;